Terminal Aerodrome Forecast
Issued by NWS

Home | Current Version | Previous Version | Text Only | Print | Product List | Glossary On
Versions: 1 2 3 4 5 6 7 8 9 10 11 12 13 14 15 16
000
FTAK31 PANC 312330
TAFAVD
TAF
PAVD 312330Z 0100/0124 25008KT P6SM SCT045 SCT200
     FM010600 VRB04KT P6SM FEW045
     FM012100 25010KT P6SM SCT045 SCT200
      AMD LTD TO CLD VIS AND WIND=

USA.gov is the U.S. government's official web portal to all federal, state and local government web resources and services.